SDR244 LDRI-EDDC
Flight info
| Callsign | SDR244 |
|---|---|
| Flight time | N/A |
| Altitude | 38000 |
| Route | ALIVO DCT NAKUM DCT MEDEL DCT IPRUX DCT DONAD DCT KONAR DCT ABKIS |
| Aircraft | A319/M-SDE3FGHIRWY/LB1 |
Departure
| Time | 2026-04-30 14:19 |
|---|---|
| Airport | Rijeka Airport (LDRI) |
Arrival
| Time | N/A |
|---|---|
| Airport | Dresden Airport (EDDC) |
| Time | Latitude | Longitude | Altitude | Speed | Heading |
|---|---|---|---|---|---|
| 2026-04-30 14:06 | 45.21875 | 14.57191 | 269 ft | 0 kts | 104° |
| 2026-04-30 14:15 | 45.21872 | 14.57200 | 269 ft | 2 kts | 116° |
| 2026-04-30 14:15 | 45.21857 | 14.57195 | 269 ft | 2 kts | 222° |
| 2026-04-30 14:15 | 45.21860 | 14.57157 | 268 ft | 6 kts | 282° |
| 2026-04-30 14:15 | 45.21891 | 14.57098 | 268 ft | 10 kts | 321° |
| 2026-04-30 14:16 | 45.21954 | 14.57031 | 268 ft | 13 kts | 323° |
| 2026-04-30 14:16 | 45.22013 | 14.56936 | 268 ft | 14 kts | 287° |
| 2026-04-30 14:16 | 45.22044 | 14.56786 | 263 ft | 17 kts | 285° |
| 2026-04-30 14:16 | 45.22092 | 14.56637 | 266 ft | 16 kts | 320° |
| 2026-04-30 14:17 | 45.22178 | 14.56548 | 268 ft | 15 kts | 324° |
| 2026-04-30 14:17 | 45.22268 | 14.56457 | 267 ft | 16 kts | 324° |
| 2026-04-30 14:17 | 45.22360 | 14.56362 | 267 ft | 17 kts | 322° |
| 2026-04-30 14:17 | 45.22465 | 14.56252 | 263 ft | 20 kts | 324° |
| 2026-04-30 14:18 | 45.22556 | 14.56199 | 263 ft | 8 kts | 353° |
| 2026-04-30 14:18 | 45.22548 | 14.56169 | 263 ft | 6 kts | 156° |
| 2026-04-30 14:18 | 45.22228 | 14.56496 | 267 ft | 89 kts | 144° |
| 2026-04-30 14:19 | 45.20648 | 14.58128 | 701 ft | 160 kts | 144° |
| 2026-04-30 14:19 | 45.19767 | 14.59062 | 1365 ft | 160 kts | 143° |
| 2026-04-30 14:19 | 45.18875 | 14.60021 | 2035 ft | 161 kts | 143° |
| 2026-04-30 14:20 | 45.17987 | 14.60987 | 2689 ft | 162 kts | 143° |
| 2026-04-30 14:20 | 45.17024 | 14.61991 | 3113 ft | 182 kts | 145° |
| 2026-04-30 14:20 | 45.14727 | 14.64266 | 3867 ft | 226 kts | 146° |
| 2026-04-30 14:21 | 45.13351 | 14.65638 | 4214 ft | 256 kts | 144° |
| 2026-04-30 14:21 | 45.11906 | 14.67128 | 5155 ft | 259 kts | 144° |
| 2026-04-30 14:21 | 45.08961 | 14.70228 | 7005 ft | 267 kts | 144° |
| 2026-04-30 14:22 | 45.07475 | 14.71768 | 7946 ft | 270 kts | 144° |
| 2026-04-30 14:22 | 45.04797 | 14.75506 | 9648 ft | 280 kts | 114° |
| 2026-04-30 14:22 | 45.04386 | 14.78186 | 10510 ft | 282 kts | 89° |
| 2026-04-30 14:23 | 45.06014 | 14.83123 | 12099 ft | 290 kts | 38° |
| 2026-04-30 14:23 | 45.09824 | 14.84435 | 13664 ft | 293 kts | 348° |
| 2026-04-30 14:24 | 45.13857 | 14.83231 | 15177 ft | 300 kts | 348° |
| 2026-04-30 14:24 | 45.15911 | 14.82634 | 15892 ft | 304 kts | 348° |
| 2026-04-30 14:25 | 45.20108 | 14.81424 | 17257 ft | 311 kts | 348° |
| 2026-04-30 14:25 | 45.24436 | 14.80214 | 18310 ft | 330 kts | 349° |
| 2026-04-30 14:26 | 45.29244 | 14.79116 | 18631 ft | 368 kts | 351° |
| 2026-04-30 14:26 | 45.31772 | 14.78569 | 19109 ft | 374 kts | 351° |
| 2026-04-30 14:26 | 45.36969 | 14.77433 | 20316 ft | 381 kts | 351° |
| 2026-04-30 14:27 | 45.39601 | 14.76846 | 20907 ft | 384 kts | 351° |
| 2026-04-30 14:27 | 45.42253 | 14.76244 | 21472 ft | 388 kts | 351° |
| 2026-04-30 14:27 | 45.44928 | 14.75631 | 22015 ft | 391 kts | 350° |
| 2026-04-30 14:28 | 45.50352 | 14.74374 | 23095 ft | 398 kts | 351° |
| 2026-04-30 14:28 | 45.53088 | 14.73728 | 23645 ft | 400 kts | 349° |
| 2026-04-30 14:28 | 45.55825 | 14.72969 | 24133 ft | 403 kts | 348° |
| 2026-04-30 14:28 | 45.58578 | 14.72104 | 24582 ft | 407 kts | 347° |
| 2026-04-30 14:29 | 45.64142 | 14.70234 | 25461 ft | 414 kts | 346° |
| 2026-04-30 14:29 | 45.68827 | 14.68683 | 26194 ft | 418 kts | 347° |
| 2026-04-30 14:30 | 45.78357 | 14.65652 | 27560 ft | 426 kts | 347° |
| 2026-04-30 14:31 | 45.84175 | 14.63820 | 28341 ft | 430 kts | 347° |
| 2026-04-30 14:31 | 45.90049 | 14.61949 | 29082 ft | 435 kts | 347° |
| 2026-04-30 14:31 | 45.93012 | 14.60996 | 29451 ft | 437 kts | 347° |
| 2026-04-30 14:32 | 45.98976 | 14.59063 | 30155 ft | 441 kts | 347° |
| 2026-04-30 14:32 | 46.01980 | 14.58088 | 30487 ft | 443 kts | 347° |
| 2026-04-30 14:32 | 46.04997 | 14.57115 | 30808 ft | 446 kts | 347° |
| 2026-04-30 14:33 | 46.08031 | 14.56144 | 31117 ft | 448 kts | 347° |
| 2026-04-30 14:33 | 46.14109 | 14.54198 | 31710 ft | 452 kts | 347° |
| 2026-04-30 14:33 | 46.17175 | 14.53214 | 32119 ft | 451 kts | 347° |
| 2026-04-30 14:34 | 46.20234 | 14.52227 | 32515 ft | 450 kts | 347° |
| 2026-04-30 14:34 | 46.23287 | 14.51235 | 32919 ft | 449 kts | 347° |
| 2026-04-30 14:34 | 46.26331 | 14.50244 | 33302 ft | 448 kts | 347° |
| 2026-04-30 14:34 | 46.29376 | 14.49256 | 33652 ft | 449 kts | 347° |
| 2026-04-30 14:35 | 46.35477 | 14.47283 | 34325 ft | 449 kts | 347° |
| 2026-04-30 14:35 | 46.38520 | 14.46295 | 34693 ft | 448 kts | 347° |
| 2026-04-30 14:35 | 46.41565 | 14.45298 | 35001 ft | 448 kts | 347° |
| 2026-04-30 14:36 | 46.44615 | 14.44295 | 35249 ft | 450 kts | 347° |
| 2026-04-30 14:36 | 46.47666 | 14.43295 | 35554 ft | 449 kts | 347° |
| 2026-04-30 14:36 | 46.50711 | 14.42298 | 35868 ft | 448 kts | 347° |
| 2026-04-30 14:36 | 46.53751 | 14.41302 | 36162 ft | 448 kts | 347° |
| 2026-04-30 14:37 | 46.56782 | 14.40311 | 36547 ft | 445 kts | 347° |
| 2026-04-30 14:37 | 46.59797 | 14.39325 | 36833 ft | 444 kts | 347° |
| 2026-04-30 14:37 | 46.62811 | 14.38336 | 37114 ft | 443 kts | 347° |
| 2026-04-30 14:37 | 46.65773 | 14.37359 | 37380 ft | 443 kts | 347° |
| 2026-04-30 14:38 | 46.68781 | 14.36369 | 37593 ft | 443 kts | 347° |
| 2026-04-30 14:38 | 46.71785 | 14.35380 | 37828 ft | 443 kts | 347° |
| 2026-04-30 14:38 | 46.74775 | 14.34297 | 37968 ft | 443 kts | 344° |
| 2026-04-30 14:39 | 46.80738 | 14.31678 | 38009 ft | 452 kts | 342° |
| 2026-04-30 14:39 | 46.86790 | 14.28791 | 38010 ft | 462 kts | 342° |
| 2026-04-30 14:40 | 46.96029 | 14.24543 | 38008 ft | 466 kts | 342° |
| 2026-04-30 14:40 | 47.02230 | 14.21784 | 38009 ft | 466 kts | 343° |
| 2026-04-30 14:41 | 47.08454 | 14.19003 | 38011 ft | 467 kts | 342° |
| 2026-04-30 14:41 | 47.14670 | 14.16192 | 38022 ft | 467 kts | 342° |
| 2026-04-30 14:42 | 47.20838 | 14.13379 | 38020 ft | 467 kts | 342° |
| 2026-04-30 14:42 | 47.27057 | 14.10534 | 38003 ft | 468 kts | 342° |
| 2026-04-30 14:43 | 47.33299 | 14.07690 | 37998 ft | 470 kts | 342° |
| 2026-04-30 14:43 | 47.39551 | 14.04844 | 38008 ft | 471 kts | 342° |
| 2026-04-30 14:44 | 47.45808 | 14.01970 | 38028 ft | 471 kts | 342° |
| 2026-04-30 14:44 | 47.52049 | 13.99086 | 38029 ft | 469 kts | 342° |
| 2026-04-30 14:45 | 47.58243 | 13.96233 | 38030 ft | 468 kts | 342° |
| 2026-04-30 14:45 | 47.64459 | 13.93365 | 38026 ft | 468 kts | 342° |
| 2026-04-30 14:46 | 47.70680 | 13.90482 | 38010 ft | 468 kts | 342° |
| 2026-04-30 14:46 | 47.75853 | 13.88078 | 38019 ft | 469 kts | 342° |
| 2026-04-30 14:47 | 47.83128 | 13.84696 | 38026 ft | 468 kts | 342° |
| 2026-04-30 14:47 | 47.89336 | 13.81807 | 38031 ft | 467 kts | 342° |
| 2026-04-30 14:48 | 47.95535 | 13.78899 | 38036 ft | 466 kts | 342° |
| 2026-04-30 14:48 | 48.01711 | 13.75994 | 38036 ft | 465 kts | 342° |
| 2026-04-30 14:49 | 48.07854 | 13.73112 | 38034 ft | 464 kts | 342° |
| 2026-04-30 14:49 | 48.14009 | 13.70217 | 38034 ft | 463 kts | 342° |
| 2026-04-30 14:50 | 48.23211 | 13.65989 | 38030 ft | 463 kts | 345° |
| 2026-04-30 14:51 | 48.32635 | 13.62841 | 38027 ft | 462 kts | 348° |
| 2026-04-30 14:52 | 48.42074 | 13.59844 | 38024 ft | 462 kts | 347° |
| 2026-04-30 14:52 | 48.51499 | 13.56599 | 38021 ft | 463 kts | 347° |
| 2026-04-30 14:53 | 48.60883 | 13.53344 | 38028 ft | 463 kts | 347° |
| 2026-04-30 14:54 | 48.73448 | 13.49014 | 38027 ft | 463 kts | 347° |
| 2026-04-30 14:55 | 48.82868 | 13.45774 | 38021 ft | 462 kts | 347° |
| 2026-04-30 14:56 | 48.95379 | 13.41417 | 38006 ft | 463 kts | 347° |
| 2026-04-30 14:57 | 49.04837 | 13.38129 | 37999 ft | 465 kts | 347° |
| 2026-04-30 14:58 | 49.17443 | 13.33696 | 37997 ft | 467 kts | 347° |
| 2026-04-30 14:58 | 49.20637 | 13.32570 | 37198 ft | 474 kts | 347° |
| 2026-04-30 14:58 | 49.27001 | 13.30326 | 36121 ft | 465 kts | 347° |
| 2026-04-30 14:59 | 49.33276 | 13.28110 | 34717 ft | 463 kts | 347° |
| 2026-04-30 15:00 | 49.42715 | 13.24754 | 32950 ft | 465 kts | 347° |
| 2026-04-30 15:00 | 49.49005 | 13.22514 | 31845 ft | 468 kts | 347° |
| 2026-04-30 15:01 | 49.55364 | 13.20192 | 30734 ft | 470 kts | 346° |
| 2026-04-30 15:01 | 49.57514 | 13.19380 | 30362 ft | 471 kts | 346° |
| 2026-04-30 15:01 | 49.64929 | 13.16531 | 29107 ft | 473 kts | 346° |
| 2026-04-30 15:02 | 49.68125 | 13.15302 | 28588 ft | 475 kts | 346° |
| 2026-04-30 15:02 | 49.71334 | 13.14074 | 28063 ft | 473 kts | 346° |
| 2026-04-30 15:03 | 49.79775 | 13.10864 | 26667 ft | 464 kts | 346° |
| 2026-04-30 15:03 | 49.85996 | 13.08493 | 25604 ft | 457 kts | 346° |
| 2026-04-30 15:04 | 49.92085 | 13.06158 | 24509 ft | 450 kts | 346° |
| 2026-04-30 15:04 | 50.01097 | 13.02693 | 22831 ft | 439 kts | 346° |
| 2026-04-30 15:05 | 50.09978 | 13.00331 | 21206 ft | 428 kts | 5° |
| 2026-04-30 15:06 | 50.15864 | 13.01379 | 20156 ft | 423 kts | 6° |
| 2026-04-30 15:06 | 50.21667 | 13.02435 | 19124 ft | 417 kts | 6° |
| 2026-04-30 15:07 | 50.27344 | 13.03459 | 18124 ft | 409 kts | 6° |
| 2026-04-30 15:07 | 50.32962 | 13.04464 | 17147 ft | 403 kts | 6° |
| 2026-04-30 15:08 | 50.38502 | 13.05462 | 16195 ft | 399 kts | 6° |
| 2026-04-30 15:08 | 50.46682 | 13.06451 | 14808 ft | 391 kts | 358° |
| 2026-04-30 15:09 | 50.52082 | 13.06205 | 13886 ft | 385 kts | 358° |
| 2026-04-30 15:09 | 50.57410 | 13.05959 | 12966 ft | 380 kts | 358° |
| 2026-04-30 15:10 | 50.62607 | 13.06548 | 12035 ft | 374 kts | 19° |
| 2026-04-30 15:11 | 50.70629 | 13.16517 | 10160 ft | 366 kts | 42° |
| 2026-04-30 15:11 | 50.74387 | 13.21852 | 9191 ft | 360 kts | 41° |
| 2026-04-30 15:12 | 50.79860 | 13.29629 | 7994 ft | 338 kts | 41° |
| 2026-04-30 15:13 | 50.83253 | 13.34461 | 7187 ft | 323 kts | 41° |
| 2026-04-30 15:14 | 50.89942 | 13.44023 | 4970 ft | 317 kts | 42° |
| 2026-04-30 15:14 | 50.94752 | 13.50923 | 4091 ft | 305 kts | 42° |
| 2026-04-30 15:16 | 51.01671 | 13.60740 | 3221 ft | 231 kts | 40° |
| 2026-04-30 15:17 | 51.05909 | 13.66531 | 2564 ft | 160 kts | 39° |
| 2026-04-30 15:18 | 51.09618 | 13.71574 | 1536 ft | 136 kts | 40° |
| 2026-04-30 15:19 | 51.11759 | 13.74493 | 974 ft | 134 kts | 40° |